Time;durP1;ratioP1;P1;durP2;ratioP2;P2;SDS_P1;SDS_P2;PMS_P1;PMS_P2;Temp;Humidity;BMP_temperature;BMP_pressure;BME280_temperature;BME280_humidity;BME280_pressure;Samples;Min_cycle;Max_cycle;Signal;HPM_P1;HPM_P2
2024/02/13 00:01:14;;;;;;;19.90;6.13;;;;;;;;;;5027575;28;20682;-56
2024/02/13 00:03:40;;;;;;;12.30;5.73;;;;;;;;;;5038967;28;20206;-56
2024/02/13 00:06:08;;;;;;;19.47;5.57;;;;;;;;;;5030589;28;20187;-60
2024/02/13 00:08:34;;;;;;;13.50;6.50;;;;;;;;;;5041612;28;20172;-56
2024/02/13 00:11:04;;;;;;;16.83;6.93;;;;;;;;;;5035249;28;20569;-55
2024/02/13 00:13:30;;;;;;;15.20;7.00;;;;;;;;;;5018907;28;20274;-59
2024/02/13 00:15:56;;;;;;;15.93;7.03;;;;;;;;;;5041990;28;20274;-55
2024/02/13 00:18:22;;;;;;;13.33;6.83;;;;;;;;;;5027406;28;20189;-59
2024/02/13 00:20:49;;;;;;;19.90;7.03;;;;;;;;;;5018684;28;20216;-57
2024/02/13 00:23:17;;;;;;;14.80;6.47;;;;;;;;;;5028727;28;20231;-57
2024/02/13 00:25:43;;;;;;;14.70;6.47;;;;;;;;;;5027775;28;20179;-57
2024/02/13 00:28:09;;;;;;;19.23;7.73;;;;;;;;;;5023889;28;20307;-58
2024/02/13 00:30:35;;;;;;;24.07;7.20;;;;;;;;;;5026617;28;20221;-56
2024/02/13 00:33:04;;;;;;;16.97;7.83;;;;;;;;;;5033640;28;20271;-59
2024/02/13 00:35:30;;;;;;;16.87;7.27;;;;;;;;;;5014067;28;20175;-57
2024/02/13 00:37:57;;;;;;;16.87;6.80;;;;;;;;;;5012484;28;20191;-56
2024/02/13 00:40:23;;;;;;;19.20;6.80;;;;;;;;;;5000583;28;20200;-57
2024/02/13 00:42:49;;;;;;;16.90;7.20;;;;;;;;;;5039473;28;20215;-56
2024/02/13 00:45:15;;;;;;;14.10;7.00;;;;;;;;;;5029755;28;20185;-57
2024/02/13 00:47:41;;;;;;;16.97;6.97;;;;;;;;;;5015034;28;20554;-55
2024/02/13 00:50:08;;;;;;;16.13;7.37;;;;;;;;;;5028674;28;20204;-57
2024/02/13 00:52:34;;;;;;;16.87;7.63;;;;;;;;;;5019092;28;20187;-56
2024/02/13 00:55:01;;;;;;;16.87;6.97;;;;;;;;;;5041744;28;20188;-56
2024/02/13 00:57:29;;;;;;;17.17;7.73;;;;;;;;;;5017699;28;20177;-59
2024/02/13 00:59:55;;;;;;;21.33;7.73;;;;;;;;;;5017199;28;20290;-59
2024/02/13 01:02:22;;;;;;;23.70;7.73;;;;;;;;;;5006178;28;20218;-58
2024/02/13 01:04:48;;;;;;;15.23;7.40;;;;;;;;;;5026624;28;20187;-57
2024/02/13 01:07:14;;;;;;;23.13;8.80;;;;;;;;;;5043969;28;20313;-57
2024/02/13 01:09:40;;;;;;;20.23;8.57;;;;;;;;;;5031457;28;20186;-58
2024/02/13 01:12:06;;;;;;;14.60;7.63;;;;;;;;;;5012570;28;20611;-55
2024/02/13 01:14:32;;;;;;;22.23;6.87;;;;;;;;;;4992533;28;20187;-56
2024/02/13 01:16:58;;;;;;;18.97;7.37;;;;;;;;;;5032858;28;20253;-55
2024/02/13 01:19:24;;;;;;;16.03;6.73;;;;;;;;;;5026553;28;20176;-56
2024/02/13 01:21:50;;;;;;;14.57;7.43;;;;;;;;;;5022858;28;20207;-57
2024/02/13 01:24:16;;;;;;;16.57;7.10;;;;;;;;;;5028932;28;20782;-56
2024/02/13 01:26:43;;;;;;;15.83;7.27;;;;;;;;;;5009271;28;20184;-55
2024/02/13 01:29:10;;;;;;;14.77;6.93;;;;;;;;;;5028067;28;20188;-57
2024/02/13 01:31:37;;;;;;;20.17;7.70;;;;;;;;;;5049179;28;20199;-58
2024/02/13 01:34:03;;;;;;;22.23;8.07;;;;;;;;;;5016146;28;20212;-59
2024/02/13 01:36:29;;;;;;;18.93;6.93;;;;;;;;;;5040698;28;20692;-56
2024/02/13 01:38:58;;;;;;;15.97;7.10;;;;;;;;;;5026455;28;20192;-56
2024/02/13 01:41:25;;;;;;;14.10;6.67;;;;;;;;;;5039963;28;20207;-57
2024/02/13 01:43:52;;;;;;;16.27;7.50;;;;;;;;;;5048961;28;20248;-58
2024/02/13 01:46:19;;;;;;;18.10;6.83;;;;;;;;;;5046107;28;20190;-57
2024/02/13 01:48:46;;;;;;;14.67;6.73;;;;;;;;;;5027086;28;20167;-58
2024/02/13 01:51:12;;;;;;;17.23;7.40;;;;;;;;;;5029810;28;20626;-56
2024/02/13 01:53:40;;;;;;;15.03;6.83;;;;;;;;;;5017768;28;20207;-59
2024/02/13 01:56:06;;;;;;;13.43;6.73;;;;;;;;;;5017358;28;20176;-58
2024/02/13 01:58:33;;;;;;;14.20;7.30;;;;;;;;;;5029914;28;20184;-58
2024/02/13 02:00:59;;;;;;;15.90;7.33;;;;;;;;;;5013760;28;20232;-56
2024/02/13 02:03:31;;;;;;;14.50;7.10;;;;;;;;;;5032515;28;20552;-60
2024/02/13 02:06:00;;;;;;;19.17;7.63;;;;;;;;;;5048544;28;20262;-57
2024/02/13 02:08:26;;;;;;;15.10;7.60;;;;;;;;;;5032701;28;20222;-56
2024/02/13 02:10:53;;;;;;;16.07;7.03;;;;;;;;;;5024714;28;20640;-55
2024/02/13 02:13:19;;;;;;;14.37;6.70;;;;;;;;;;5035134;28;20196;-59
2024/02/13 02:15:45;;;;;;;19.23;7.50;;;;;;;;;;5046885;28;20652;-58
2024/02/13 02:18:13;;;;;;;19.63;7.60;;;;;;;;;;5041746;28;20241;-57
2024/02/13 02:20:39;;;;;;;17.50;7.70;;;;;;;;;;5036296;28;20202;-56
2024/02/13 02:23:07;;;;;;;20.20;8.13;;;;;;;;;;5009513;28;20235;-58
2024/02/13 02:25:33;;;;;;;15.93;7.03;;;;;;;;;;5017415;28;20180;-57
2024/02/13 02:27:59;;;;;;;14.53;7.30;;;;;;;;;;5032596;28;20263;-56
2024/02/13 02:30:25;;;;;;;15.67;7.40;;;;;;;;;;5043206;28;20639;-58
2024/02/13 02:32:51;;;;;;;13.00;6.60;;;;;;;;;;5021376;28;20188;-58
2024/02/13 02:35:17;;;;;;;18.90;7.37;;;;;;;;;;5040959;28;20191;-57
2024/02/13 02:37:47;;;;;;;13.60;7.00;;;;;;;;;;5051761;28;20179;-58
2024/02/13 02:40:14;;;;;;;16.17;7.53;;;;;;;;;;5049471;28;20198;-56
2024/02/13 02:42:40;;;;;;;18.30;7.63;;;;;;;;;;5012552;28;20212;-58
2024/02/13 02:45:06;;;;;;;19.27;7.37;;;;;;;;;;5038054;28;20673;-59
2024/02/13 02:47:34;;;;;;;14.90;7.27;;;;;;;;;;5035281;28;20712;-59
2024/02/13 02:50:00;;;;;;;17.67;7.30;;;;;;;;;;5044724;28;20195;-56
2024/02/13 02:52:26;;;;;;;14.20;7.20;;;;;;;;;;5027274;28;20190;-57
2024/02/13 02:54:52;;;;;;;14.77;7.27;;;;;;;;;;5052015;28;20210;-58
2024/02/13 02:57:18;;;;;;;20.13;7.90;;;;;;;;;;5034705;28;20258;-57
2024/02/13 02:59:46;;;;;;;18.97;8.30;;;;;;;;;;5032516;28;20189;-58
2024/02/13 03:02:12;;;;;;;19.33;7.70;;;;;;;;;;5028518;28;20290;-56
2024/02/13 03:04:37;;;;;;;20.43;8.80;;;;;;;;;;5016908;28;20254;-57
2024/02/13 03:07:04;;;;;;;20.70;8.73;;;;;;;;;;5030864;28;20180;-57
2024/02/13 03:09:30;;;;;;;21.40;8.10;;;;;;;;;;5031598;28;20188;-53
2024/02/13 03:11:56;;;;;;;20.13;7.80;;;;;;;;;;5030614;28;20179;-56
2024/02/13 03:14:22;;;;;;;20.30;8.17;;;;;;;;;;5023289;28;20199;-58
2024/02/13 03:16:50;;;;;;;21.17;8.43;;;;;;;;;;5045431;28;20187;-57
2024/02/13 03:19:16;;;;;;;15.10;7.17;;;;;;;;;;5051493;28;20190;-57
2024/02/13 03:21:42;;;;;;;16.23;7.87;;;;;;;;;;5046133;28;20199;-57
2024/02/13 03:24:08;;;;;;;18.60;7.57;;;;;;;;;;5047080;28;20256;-57
2024/02/13 03:26:34;;;;;;;16.67;7.67;;;;;;;;;;5036149;28;20190;-56
2024/02/13 03:29:02;;;;;;;16.57;8.87;;;;;;;;;;5035070;28;20183;-55
2024/02/13 03:31:28;;;;;;;17.70;7.97;;;;;;;;;;5018318;28;20206;-56
2024/02/13 03:33:54;;;;;;;18.67;7.73;;;;;;;;;;5043144;28;20261;-55
2024/02/13 03:36:20;;;;;;;21.43;8.13;;;;;;;;;;5042271;28;20271;-58
2024/02/13 03:38:49;;;;;;;18.80;8.03;;;;;;;;;;5042918;28;20183;-58
2024/02/13 03:41:15;;;;;;;19.47;8.40;;;;;;;;;;5041384;28;20749;-58
2024/02/13 03:43:43;;;;;;;15.53;8.00;;;;;;;;;;5022996;28;20299;-58
2024/02/13 03:46:10;;;;;;;19.57;8.23;;;;;;;;;;5031657;28;20191;-57
2024/02/13 03:48:36;;;;;;;18.03;7.63;;;;;;;;;;5043054;28;20182;-59
2024/02/13 03:51:02;;;;;;;16.60;7.73;;;;;;;;;;5026862;28;20253;-56
2024/02/13 03:53:29;;;;;;;18.90;8.23;;;;;;;;;;5005717;28;20692;-53
2024/02/13 03:55:55;;;;;;;18.40;7.87;;;;;;;;;;5031482;28;20184;-58
2024/02/13 03:58:21;;;;;;;17.00;8.07;;;;;;;;;;5025181;28;20195;-58
2024/02/13 04:00:47;;;;;;;16.63;8.17;;;;;;;;;;5031405;28;20216;-57
2024/02/13 04:03:13;;;;;;;17.73;8.27;;;;;;;;;;5029565;28;20234;-57
2024/02/13 04:05:39;;;;;;;22.00;7.77;;;;;;;;;;5035411;28;20183;-58
2024/02/13 04:08:08;;;;;;;16.63;7.03;;;;;;;;;;5033731;28;20176;-57
2024/02/13 04:10:38;;;;;;;16.13;8.43;;;;;;;;;;5038152;28;20321;-57
2024/02/13 04:13:06;;;;;;;17.17;7.43;;;;;;;;;;5029381;28;20534;-59
2024/02/13 04:15:37;;;;;;;15.07;7.83;;;;;;;;;;5046565;28;20184;-58
2024/02/13 04:18:03;;;;;;;19.53;8.40;;;;;;;;;;5046448;28;20630;-58
2024/02/13 04:20:29;;;;;;;15.17;7.03;;;;;;;;;;5025558;28;20202;-58
2024/02/13 04:22:55;;;;;;;17.67;8.23;;;;;;;;;;5035032;28;20213;-57
2024/02/13 04:25:22;;;;;;;20.77;8.10;;;;;;;;;;5023930;28;20210;-58
2024/02/13 04:27:47;;;;;;;22.73;7.93;;;;;;;;;;5035836;28;20188;-57
2024/02/13 04:30:14;;;;;;;19.20;8.00;;;;;;;;;;5038431;28;20203;-58
2024/02/13 04:32:40;;;;;;;20.27;8.37;;;;;;;;;;5025258;28;20216;-56
2024/02/13 04:35:10;;;;;;;27.40;9.33;;;;;;;;;;5025328;28;20180;-60
2024/02/13 04:37:36;;;;;;;24.57;9.20;;;;;;;;;;5035149;28;20388;-55
2024/02/13 04:40:02;;;;;;;16.63;8.53;;;;;;;;;;5033534;28;20577;-55
2024/02/13 04:42:37;;;;;;;23.20;9.27;;;;;;;;;;5026999;28;20223;-56
2024/02/13 04:45:03;;;;;;;19.83;9.07;;;;;;;;;;5034514;28;20202;-58
2024/02/13 04:47:30;;;;;;;22.07;8.60;;;;;;;;;;5012862;28;20658;-59
2024/02/13 04:49:56;;;;;;;18.97;8.83;;;;;;;;;;5045448;28;20203;-56
2024/02/13 04:52:22;;;;;;;20.70;9.67;;;;;;;;;;5049721;28;20191;-59
2024/02/13 04:54:49;;;;;;;20.17;8.83;;;;;;;;;;5033552;28;20187;-56
2024/02/13 04:57:14;;;;;;;23.87;10.13;;;;;;;;;;5047937;28;20202;-57
2024/02/13 04:59:47;;;;;;;25.90;10.37;;;;;;;;;;5024799;28;20188;-57
2024/02/13 05:02:18;;;;;;;23.23;10.33;;;;;;;;;;5018122;28;20211;-59
2024/02/13 05:07:29;;;;;;;25.27;9.87;;;;;;;;;;5019208;28;20304;-56
2024/02/13 05:09:59;;;;;;;22.30;9.97;;;;;;;;;;5010033;28;20199;-56
2024/02/13 05:12:26;;;;;;;24.73;9.60;;;;;;;;;;5039756;28;20226;-59
2024/02/13 05:14:52;;;;;;;25.87;10.50;;;;;;;;;;5026508;28;20202;-59
2024/02/13 05:17:27;;;;;;;24.03;9.97;;;;;;;;;;5029822;28;20183;-56
2024/02/13 05:19:53;;;;;;;25.60;9.80;;;;;;;;;;5049476;28;20198;-57
2024/02/13 05:22:20;;;;;;;24.20;9.27;;;;;;;;;;5049045;28;20215;-59
2024/02/13 05:24:46;;;;;;;23.33;10.43;;;;;;;;;;5041025;28;20186;-60
2024/02/13 05:27:13;;;;;;;25.83;10.97;;;;;;;;;;5032029;28;20712;-58
2024/02/13 05:29:39;;;;;;;27.17;10.80;;;;;;;;;;5023730;28;20176;-55
2024/02/13 05:32:06;;;;;;;21.80;10.27;;;;;;;;;;5034457;28;20172;-61
2024/02/13 05:34:32;;;;;;;25.13;10.63;;;;;;;;;;5022455;28;20180;-60
2024/02/13 05:36:58;;;;;;;26.57;11.30;;;;;;;;;;5015097;28;20192;-57
2024/02/13 05:39:25;;;;;;;21.67;10.40;;;;;;;;;;5017999;28;20238;-56
2024/02/13 05:41:51;;;;;;;26.50;10.83;;;;;;;;;;5051832;28;20294;-55
2024/02/13 05:44:17;;;;;;;25.80;9.43;;;;;;;;;;5044404;28;20222;-60
2024/02/13 05:46:43;;;;;;;25.50;10.20;;;;;;;;;;5039121;28;20214;-56
2024/02/13 05:49:09;;;;;;;24.83;10.50;;;;;;;;;;5033196;28;20192;-54
2024/02/13 05:51:36;;;;;;;23.50;10.20;;;;;;;;;;5025020;28;20204;-58
2024/02/13 05:54:05;;;;;;;31.47;14.00;;;;;;;;;;5031337;28;20206;-58
2024/02/13 05:56:32;;;;;;;23.73;10.23;;;;;;;;;;5020945;28;20268;-59
2024/02/13 05:59:00;;;;;;;40.77;14.30;;;;;;;;;;5020436;28;20253;-60
2024/02/13 06:01:26;;;;;;;29.57;11.13;;;;;;;;;;5052066;28;20238;-59
2024/02/13 06:03:55;;;;;;;23.63;10.60;;;;;;;;;;5036473;28;20696;-57
2024/02/13 06:06:21;;;;;;;25.77;11.77;;;;;;;;;;5043776;28;20674;-56
2024/02/13 06:08:48;;;;;;;31.77;11.50;;;;;;;;;;5052756;28;20218;-58
2024/02/13 06:11:14;;;;;;;28.30;10.57;;;;;;;;;;5050163;28;20261;-58
2024/02/13 06:13:44;;;;;;;26.83;11.03;;;;;;;;;;5030786;28;20179;-59
2024/02/13 06:16:11;;;;;;;22.07;9.87;;;;;;;;;;5050893;28;20179;-57
2024/02/13 06:18:37;;;;;;;22.70;10.27;;;;;;;;;;5033854;28;20643;-58
2024/02/13 06:21:03;;;;;;;24.47;10.80;;;;;;;;;;5032990;28;20215;-57
2024/02/13 06:23:30;;;;;;;44.07;18.27;;;;;;;;;;5040671;28;20200;-55
2024/02/13 06:25:55;;;;;;;29.60;11.60;;;;;;;;;;5034030;28;20553;-57
2024/02/13 06:28:25;;;;;;;36.10;12.47;;;;;;;;;;5041320;28;20187;-57
2024/02/13 06:30:51;;;;;;;25.33;11.43;;;;;;;;;;5034462;28;20202;-57
2024/02/13 06:33:17;;;;;;;30.10;11.70;;;;;;;;;;5035902;28;20191;-58
2024/02/13 06:35:43;;;;;;;22.43;11.20;;;;;;;;;;5051411;28;20186;-57
2024/02/13 06:38:10;;;;;;;23.67;11.20;;;;;;;;;;5051964;28;20187;-57
2024/02/13 06:40:36;;;;;;;24.50;10.87;;;;;;;;;;5044031;28;20200;-58
2024/02/13 06:43:03;;;;;;;25.47;10.43;;;;;;;;;;5035829;28;20203;-54
2024/02/13 06:45:30;;;;;;;23.67;10.30;;;;;;;;;;5030211;28;20179;-60
2024/02/13 06:47:56;;;;;;;21.03;10.03;;;;;;;;;;5026135;28;20171;-60
2024/02/13 06:50:23;;;;;;;40.23;14.77;;;;;;;;;;5025719;28;20263;-61
2024/02/13 06:52:54;;;;;;;31.33;13.03;;;;;;;;;;5024649;28;20329;-61
2024/02/13 06:55:20;;;;;;;45.63;15.30;;;;;;;;;;5050685;28;20187;-61
2024/02/13 06:57:46;;;;;;;33.77;13.73;;;;;;;;;;5035179;28;20312;-61
2024/02/13 07:00:13;;;;;;;33.70;12.00;;;;;;;;;;5033461;28;20572;-60
2024/02/13 07:02:39;;;;;;;23.93;10.00;;;;;;;;;;5020133;28;20203;-61
2024/02/13 07:05:08;;;;;;;33.30;12.50;;;;;;;;;;5036388;28;20632;-61
2024/02/13 07:07:34;;;;;;;35.40;12.23;;;;;;;;;;5019027;28;20176;-59
2024/02/13 07:10:00;;;;;;;28.20;11.50;;;;;;;;;;5035507;28;20199;-59
2024/02/13 07:12:26;;;;;;;33.23;12.73;;;;;;;;;;5037245;28;20291;-61
2024/02/13 07:14:52;;;;;;;27.87;12.17;;;;;;;;;;5011594;28;20184;-60
2024/02/13 07:17:18;;;;;;;27.13;10.53;;;;;;;;;;5045525;28;20187;-62
2024/02/13 07:19:45;;;;;;;22.63;10.90;;;;;;;;;;5044624;28;20194;-61
2024/02/13 07:22:11;;;;;;;27.97;10.93;;;;;;;;;;5034141;28;20303;-62
2024/02/13 07:24:37;;;;;;;26.60;11.30;;;;;;;;;;5019207;28;20255;-61
2024/02/13 07:27:07;;;;;;;39.13;16.43;;;;;;;;;;5008370;28;20693;-60
2024/02/13 07:29:33;;;;;;;27.17;12.60;;;;;;;;;;5020296;28;20233;-57
2024/02/13 07:32:03;;;;;;;27.73;11.47;;;;;;;;;;5053616;28;20558;-56
2024/02/13 07:34:29;;;;;;;23.80;11.07;;;;;;;;;;5037054;28;20174;-55
2024/02/13 07:36:55;;;;;;;25.70;11.03;;;;;;;;;;5039656;28;20245;-56
2024/02/13 07:39:21;;;;;;;25.70;11.33;;;;;;;;;;5040059;28;20188;-59
2024/02/13 07:41:47;;;;;;;33.73;12.43;;;;;;;;;;5019002;28;20204;-56
2024/02/13 07:44:13;;;;;;;26.47;11.10;;;;;;;;;;5045538;28;20564;-55
2024/02/13 07:46:40;;;;;;;24.43;11.50;;;;;;;;;;5037640;28;20186;-55
2024/02/13 07:49:07;;;;;;;23.27;11.67;;;;;;;;;;5052251;28;20206;-56
2024/02/13 07:51:33;;;;;;;27.37;10.93;;;;;;;;;;5020162;28;20199;-53
2024/02/13 07:53:59;;;;;;;28.00;11.40;;;;;;;;;;5019904;28;20191;-59
2024/02/13 07:56:28;;;;;;;27.10;11.50;;;;;;;;;;5028028;28;20216;-57
2024/02/13 07:58:57;;;;;;;29.70;11.50;;;;;;;;;;5018479;28;20271;-60
2024/02/13 08:01:25;;;;;;;26.27;11.93;;;;;;;;;;5030359;28;20239;-57
2024/02/13 08:03:51;;;;;;;26.93;11.37;;;;;;;;;;5003520;28;20742;-57
2024/02/13 08:06:17;;;;;;;29.63;12.17;;;;;;;;;;5031028;28;20207;-57
2024/02/13 08:08:43;;;;;;;28.47;12.87;;;;;;;;;;5030182;28;20239;-58
2024/02/13 08:11:10;;;;;;;25.10;12.23;;;;;;;;;;5041873;28;20211;-58
2024/02/13 08:13:37;;;;;;;30.83;13.27;;;;;;;;;;5046119;28;20229;-59
2024/02/13 08:16:03;;;;;;;28.23;12.80;;;;;;;;;;5034463;28;20180;-58
2024/02/13 08:18:29;;;;;;;31.70;13.07;;;;;;;;;;5043348;28;20298;-56
2024/02/13 08:20:55;;;;;;;30.37;13.10;;;;;;;;;;5044977;28;20207;-58
2024/02/13 08:23:21;;;;;;;33.43;13.60;;;;;;;;;;5037964;28;20207;-55
2024/02/13 08:25:49;;;;;;;33.90;13.53;;;;;;;;;;5021538;28;20329;-57
2024/02/13 08:28:15;;;;;;;31.73;14.50;;;;;;;;;;5050974;28;20553;-58
2024/02/13 08:30:41;;;;;;;33.70;15.80;;;;;;;;;;5043034;28;20633;-54
2024/02/13 08:33:07;;;;;;;43.97;17.27;;;;;;;;;;5029846;28;20206;-57
2024/02/13 08:35:33;;;;;;;38.57;17.40;;;;;;;;;;5019736;28;20257;-59
2024/02/13 08:38:00;;;;;;;40.47;17.37;;;;;;;;;;5037023;28;20195;-56
2024/02/13 08:40:26;;;;;;;44.90;17.97;;;;;;;;;;5042517;28;20701;-57
2024/02/13 08:42:52;;;;;;;35.90;17.50;;;;;;;;;;5035695;28;20214;-58
2024/02/13 08:45:18;;;;;;;39.50;18.03;;;;;;;;;;5024848;28;20203;-56
2024/02/13 08:47:44;;;;;;;29.47;13.50;;;;;;;;;;5029932;28;20259;-59
2024/02/13 08:50:12;;;;;;;21.27;11.60;;;;;;;;;;5029779;28;20226;-58
2024/02/13 08:52:38;;;;;;;26.83;10.53;;;;;;;;;;5043858;28;20183;-58
2024/02/13 08:55:07;;;;;;;24.23;12.20;;;;;;;;;;5027612;28;20230;-59
2024/02/13 08:57:33;;;;;;;25.23;12.67;;;;;;;;;;5018338;28;20194;-59
2024/02/13 08:59:59;;;;;;;28.70;13.03;;;;;;;;;;5051803;28;20308;-58
2024/02/13 09:02:25;;;;;;;19.67;10.53;;;;;;;;;;5034392;28;20581;-57
2024/02/13 09:04:51;;;;;;;14.33;7.20;;;;;;;;;;5039860;28;20215;-60
2024/02/13 09:07:17;;;;;;;15.97;7.23;;;;;;;;;;5013270;28;20189;-59
2024/02/13 09:09:42;;;;;;;15.10;6.47;;;;;;;;;;5041285;28;20264;-59
2024/02/13 09:12:08;;;;;;;12.70;7.00;;;;;;;;;;5050643;28;20549;-57
2024/02/13 09:14:35;;;;;;;10.27;6.10;;;;;;;;;;5028631;28;20184;-59
2024/02/13 09:17:01;;;;;;;13.63;5.63;;;3.10;99.90;;;;;;5033615;28;20206;-58
2024/02/13 09:19:26;;;;;;;10.70;5.10;;;9.70;99.90;;;;;;5042546;28;20651;-58
2024/02/13 09:21:53;;;;;;;11.33;4.90;;;10.20;99.90;;;;;;5026314;28;20208;-56
2024/02/13 09:24:18;;;;;;;6.70;4.17;;;10.50;99.90;;;;;;5037828;28;20740;-58
2024/02/13 09:26:44;;;;;;;7.97;4.10;;;10.40;99.90;;;;;;5027467;28;20259;-60
2024/02/13 09:29:10;;;;;;;8.17;3.00;;;10.30;99.90;;;;;;5020050;28;20194;-59
2024/02/13 09:31:35;;;;;;;6.30;2.60;;;10.30;99.90;;;;;;5049128;28;20293;-57
2024/02/13 09:34:01;;;;;;;11.83;2.30;;;10.60;99.90;;;;;;5047119;28;20240;-60
2024/02/13 09:36:27;;;;;;;4.80;2.20;;;10.30;99.90;;;;;;5030691;28;20196;-59
2024/02/13 09:38:53;;;;;;;6.00;2.33;;;10.10;99.90;;;;;;5024162;28;20188;-58
2024/02/13 09:41:19;;;;;;;11.07;2.40;;;9.80;99.90;;;;;;5043777;28;20675;-59
2024/02/13 09:43:48;;;;;;;5.30;2.10;;;9.80;99.90;;;;;;5026972;28;20215;-59
2024/02/13 09:46:17;;;;;;;3.57;2.17;;;10.00;99.90;;;;;;5024530;28;20206;-58
2024/02/13 09:48:47;;;;;;;4.27;1.97;;;10.20;99.90;;;;;;5041997;28;20190;-58
2024/02/13 09:51:18;;;;;;;5.43;1.80;;;10.10;99.90;;;;;;5043381;28;20239;-59
2024/02/13 09:53:46;;;;;;;8.10;1.77;;;10.10;99.90;;;;;;5024555;28;20184;-59
2024/02/13 09:56:14;;;;;;;3.00;1.70;;;10.20;99.90;;;;;;5034610;28;20190;-59
2024/02/13 09:58:41;;;;;;;6.67;2.23;;;10.20;99.90;;;;;;5036221;28;20677;-61
2024/02/13 10:01:07;;;;;;;2.80;1.60;;;10.30;99.90;;;;;;5042211;28;20368;-57
2024/02/13 10:03:35;;;;;;;3.60;1.60;;;10.30;99.90;;;;;;5012283;28;20286;-58
2024/02/13 10:06:00;;;;;;;4.50;1.80;;;10.20;99.90;;;;;;5015161;28;20196;-59
2024/02/13 10:08:30;;;;;;;9.20;1.70;;;10.10;99.90;;;;;;5045583;28;20183;-60
2024/02/13 10:11:04;;;;;;;3.23;1.60;;;10.20;99.90;;;;;;5016495;28;20208;-59
2024/02/13 10:13:35;;;;;;;3.77;1.70;;;10.20;99.90;;;;;;5032861;28;20184;-57
2024/02/13 10:16:01;;;;;;;7.50;1.60;;;9.90;99.90;;;;;;5027512;28;20248;-60
2024/02/13 10:18:27;;;;;;;7.13;1.83;;;9.50;99.90;;;;;;5033371;28;20191;-56
2024/02/13 10:20:54;;;;;;;4.90;1.47;;;9.30;99.90;;;;;;5023743;28;20247;-59
2024/02/13 10:23:24;;;;;;;4.80;1.80;;;9.30;99.90;;;;;;5041973;28;20237;-60
2024/02/13 10:25:50;;;;;;;5.03;1.23;;;9.30;99.90;;;;;;5047281;28;20199;-59
2024/02/13 10:28:17;;;;;;;6.00;1.40;;;9.10;99.90;;;;;;5026616;28;20600;-57
2024/02/13 10:30:49;;;;;;;4.60;1.37;;;9.20;99.90;;;;;;5048221;28;20514;-57
2024/02/13 10:33:15;;;;;;;6.47;1.50;;;9.00;99.90;;;;;;5039195;28;20621;-59
2024/02/13 10:35:41;;;;;;;3.13;1.10;;;8.70;99.90;;;;;;5054736;28;20179;-58
2024/02/13 10:38:09;;;;;;;2.57;1.30;;;8.80;99.90;;;;;;5046103;28;20265;-60
2024/02/13 10:40:39;;;;;;;4.40;1.43;;;9.20;99.90;;;;;;5021072;28;20789;-59
2024/02/13 10:43:11;;;;;;;3.63;1.23;;;9.70;99.90;;;;;;5039268;28;20756;-59
2024/02/13 10:45:37;;;;;;;7.27;1.43;;;9.60;99.90;;;;;;5022990;28;20189;-57
2024/02/13 10:48:28;;;;;;;4.20;1.23;;;9.60;99.90;;;;;;5038095;28;20183;-58
2024/02/13 10:50:57;;;;;;;5.77;1.60;;;9.60;99.90;;;;;;5032955;28;20210;-59
2024/02/13 10:53:24;;;;;;;3.20;1.63;;;9.40;99.90;;;;;;5037996;28;20362;-60
2024/02/13 10:55:55;;;;;;;4.53;1.77;;;9.30;99.90;;;;;;5026861;28;20180;-57
2024/02/13 10:58:22;;;;;;;5.93;1.57;;;9.00;99.90;;;;;;5042627;28;20221;-60
2024/02/13 11:00:51;;;;;;;3.50;1.67;;;8.70;99.90;;;;;;5046134;28;20344;-60
2024/02/13 11:03:17;;;;;;;4.30;1.93;;;8.60;99.90;;;;;;5036866;28;20866;-59
2024/02/13 11:05:43;;;;;;;3.13;1.50;;;8.60;99.90;;;;;;5037499;28;20180;-60
2024/02/13 11:08:09;;;;;;;2.93;1.57;;;8.80;99.90;;;;;;5037105;28;20202;-58
2024/02/13 11:10:34;;;;;;;3.93;1.70;;;9.00;99.90;;;;;;5028742;28;20339;-58
2024/02/13 11:13:05;;;;;;;2.27;1.30;;;8.90;99.90;;;;;;5042463;28;20713;-58
2024/02/13 11:15:33;;;;;;;2.43;1.20;;;9.00;99.90;;;;;;5032020;28;20535;-57
2024/02/13 11:18:04;;;;;;;6.03;1.47;;;9.40;99.90;;;;;;5037944;28;20236;-60
2024/02/13 11:20:36;;;;;;;4.83;1.80;;;9.50;99.90;;;;;;5023731;28;20254;-58
2024/02/13 11:23:11;;;;;;;2.33;1.33;;;9.60;99.90;;;;;;5038417;28;20198;-57
2024/02/13 11:25:39;;;;;;;4.20;1.30;;;9.60;99.90;;;;;;5030631;28;20181;-58
2024/02/13 11:28:06;;;;;;;5.50;1.40;;;9.60;99.90;;;;;;5043039;28;20191;-62
2024/02/13 11:30:33;;;;;;;4.20;2.20;;;9.50;99.90;;;;;;5034496;28;20608;-54
2024/02/13 11:33:01;;;;;;;3.20;1.50;;;9.70;99.90;;;;;;5045239;28;20263;-57
2024/02/13 11:35:31;;;;;;;3.63;1.40;;;9.70;99.90;;;;;;5040917;28;20283;-55
2024/02/13 11:38:01;;;;;;;3.70;1.33;;;9.60;99.90;;;;;;5050371;28;20191;-56
2024/02/13 11:40:27;;;;;;;4.33;1.33;;;9.70;99.90;;;;;;5029897;28;20367;-56
2024/02/13 11:42:57;;;;;;;4.93;1.33;;;10.00;99.90;;;;;;5038764;28;20218;-57
2024/02/13 11:45:26;;;;;;;4.93;1.37;;;10.00;99.90;;;;;;5032129;28;20191;-58
2024/02/13 11:47:53;;;;;;;2.47;1.40;;;10.00;99.90;;;;;;5022065;28;20176;-55
2024/02/13 11:50:19;;;;;;;2.77;1.30;;;9.90;99.90;;;;;;5039137;28;20278;-58
2024/02/13 11:52:46;;;;;;;1.90;1.20;;;10.00;99.90;;;;;;5020876;28;20199;-59
2024/02/13 11:55:12;;;;;;;3.23;1.20;;;10.20;99.90;;;;;;5039277;28;20729;-58
2024/02/13 11:57:38;;;;;;;1.80;1.17;;;10.20;99.90;;;;;;5049775;28;20530;-55
2024/02/13 12:00:12;;;;;;;1.80;1.00;;;10.40;99.90;;;;;;5035111;28;20222;-58
2024/02/13 12:02:41;;;;;;;2.13;1.00;;;10.10;99.90;;;;;;5014708;28;20600;-56
2024/02/13 12:05:10;;;;;;;2.07;1.10;;;9.90;99.90;;;;;;5038095;28;20674;-56
2024/02/13 12:07:37;;;;;;;4.73;1.10;;;10.10;99.90;;;;;;5021452;28;20184;-56
2024/02/13 12:10:06;;;;;;;2.63;1.23;;;10.50;99.90;;;;;;5038686;28;20647;-57
2024/02/13 12:12:33;;;;;;;3.70;1.13;;;11.10;99.90;;;;;;5019291;28;20727;-57
2024/02/13 12:15:00;;;;;;;2.13;1.13;;;11.30;99.90;;;;;;5018769;28;20267;-60
2024/02/13 12:17:26;;;;;;;4.67;0.90;;;11.30;99.90;;;;;;5045638;28;20206;-55
2024/02/13 12:19:55;;;;;;;3.97;1.30;;;11.20;99.90;;;;;;5036242;28;20725;-58
2024/02/13 12:22:23;;;;;;;2.33;1.30;;;11.40;99.90;;;;;;5044581;28;20187;-58
2024/02/13 12:24:50;;;;;;;2.03;1.07;;;11.20;99.90;;;;;;5033285;28;20242;-57
2024/02/13 12:27:16;;;;;;;3.97;1.30;;;11.00;99.90;;;;;;5029356;28;20600;-57
2024/02/13 12:29:42;;;;;;;3.53;1.57;;;11.10;99.90;;;;;;5040961;28;20220;-54
2024/02/13 12:32:16;;;;;;;1.90;1.13;;;11.20;99.90;;;;;;5042078;28;20595;-58
2024/02/13 12:34:42;;;;;;;4.20;0.90;;;11.00;99.90;;;;;;5026627;28;20176;-58
2024/02/13 12:37:08;;;;;;;2.70;1.20;;;10.30;99.90;;;;;;5026019;28;20187;-56
2024/02/13 12:39:36;;;;;;;3.13;1.40;;;10.30;99.90;;;;;;5033954;28;20175;-54
2024/02/13 12:42:05;;;;;;;3.40;1.60;;;10.30;99.90;;;;;;5042087;28;20669;-56
2024/02/13 12:44:33;;;;;;;5.03;1.30;;;10.50;99.90;;;;;;5027940;28;20343;-52
2024/02/13 12:46:59;;;;;;;5.30;1.10;;;10.50;99.90;;;;;;5039321;28;20530;-55
2024/02/13 12:49:26;;;;;;;6.77;2.63;;;10.40;99.90;;;;;;5050912;28;20224;-55
2024/02/13 12:51:52;;;;;;;5.43;1.83;;;10.50;99.90;;;;;;5043990;28;20295;-56
2024/02/13 12:54:20;;;;;;;3.60;1.57;;;10.80;99.90;;;;;;5047175;28;20226;-60
2024/02/13 12:56:46;;;;;;;5.27;1.67;;;10.90;99.90;;;;;;5015454;28;20543;-58
2024/02/13 12:59:12;;;;;;;3.30;1.70;;;10.70;99.90;;;;;;5032769;28;20251;-58
2024/02/13 13:01:45;;;;;;;4.07;1.60;;;10.60;99.90;;;;;;5049204;28;20210;-57
2024/02/13 13:04:15;;;;;;;5.27;2.87;;;10.60;99.90;;;;;;5024383;28;20303;-60
2024/02/13 13:06:44;;;;;;;7.33;2.37;;;10.60;99.90;;;;;;5033110;28;20187;-57
2024/02/13 13:09:20;;;;;;;2.80;1.33;;;10.40;99.90;;;;;;5032823;28;20270;-54
2024/02/13 13:11:46;;;;;;;5.67;1.53;;;10.50;99.90;;;;;;5032868;28;20256;-57
2024/02/13 13:14:12;;;;;;;1.90;1.00;;;10.40;99.90;;;;;;5033943;28;20203;-57
2024/02/13 13:16:38;;;;;;;6.47;1.40;;;10.40;99.90;;;;;;5032203;28;20188;-56
2024/02/13 13:19:06;;;;;;;3.83;1.30;;;10.60;99.90;;;;;;5040338;28;20266;-57
2024/02/13 13:21:33;;;;;;;2.07;1.20;;;10.90;99.90;;;;;;5003466;28;20235;-55
2024/02/13 13:24:00;;;;;;;2.83;1.23;;;11.10;99.90;;;;;;5040968;28;20281;-54
2024/02/13 13:26:33;;;;;;;5.40;1.40;;;10.80;99.90;;;;;;5038387;28;20647;-58
2024/02/13 13:29:08;;;;;;;3.23;1.30;;;10.70;99.90;;;;;;5034125;28;20171;-55
2024/02/13 13:31:35;;;;;;;3.53;1.27;;;10.50;99.90;;;;;;5020893;28;20217;-59
2024/02/13 13:34:10;;;;;;;4.33;1.23;;;10.30;99.90;;;;;;5022182;28;20185;-57
2024/02/13 13:36:37;;;;;;;6.10;2.00;;;10.20;99.90;;;;;;5039542;28;20634;-55
2024/02/13 13:39:08;;;;;;;6.63;1.50;;;10.00;99.90;;;;;;5048495;28;20179;-59
2024/02/13 13:41:40;;;;;;;3.63;1.20;;;10.00;99.90;;;;;;5045693;28;20192;-56
2024/02/13 13:44:10;;;;;;;4.47;1.40;;;9.90;99.90;;;;;;5028489;28;20228;-57
2024/02/13 13:46:36;;;;;;;1.97;1.10;;;9.70;99.90;;;;;;5028326;28;20176;-55
2024/02/13 13:49:01;;;;;;;4.00;2.00;;;9.80;99.90;;;;;;5044135;28;20185;-57
2024/02/13 13:51:33;;;;;;;8.67;1.70;;;9.70;99.90;;;;;;5046530;28;20564;-56
2024/02/13 13:53:59;;;;;;;10.20;1.60;;;9.70;99.90;;;;;;5035467;28;20175;-58